Time;durP1;ratioP1;P1;durP2;ratioP2;P2;SDS_P1;SDS_P2;PMS_P1;PMS_P2;Temp;Humidity;BMP_temperature;BMP_pressure;BME280_temperature;BME280_humidity;BME280_pressure;Samples;Min_cycle;Max_cycle;Signal;HPM_P1;HPM_P2
2023/09/06 00:00:28;;;;;;;6.95;3.65;;;23.00;67.60;;;;;;4945937;29;20031;-50
2023/09/06 00:02:56;;;;;;;6.82;3.83;;;23.10;67.70;;;;;;4948681;28;20486;-55
2023/09/06 00:05:22;;;;;;;8.25;3.83;;;23.00;67.70;;;;;;4929404;29;20035;-47
2023/09/06 00:07:48;;;;;;;19.27;4.65;;;23.00;67.90;;;;;;4933750;29;20051;-47
2023/09/06 00:10:17;;;;;;;9.85;3.95;;;23.00;67.60;;;;;;4937376;29;20023;-47
2023/09/06 00:12:45;;;;;;;8.88;4.25;;;23.00;67.70;;;;;;4952577;28;20042;-46
2023/09/06 00:15:11;;;;;;;15.27;4.28;;;23.00;67.50;;;;;;4951433;28;20050;-48
2023/09/06 00:17:38;;;;;;;8.05;4.00;;;22.90;67.40;;;;;;4952453;28;20114;-47
2023/09/06 00:20:26;;;;;;;11.45;4.60;;;22.90;67.30;;;;;;4949532;28;20093;-48
2023/09/06 00:22:59;;;;;;;9.45;4.30;;;22.80;67.10;;;;;;4948816;29;20048;-49
2023/09/06 00:25:27;;;;;;;9.77;5.07;;;22.90;67.10;;;;;;4951805;28;20031;-46
2023/09/06 00:27:54;;;;;;;12.95;5.35;;;22.80;66.80;;;;;;4952181;28;20035;-47
2023/09/06 00:30:20;;;;;;;10.55;5.28;;;22.80;66.80;;;;;;4948214;28;20028;-46
2023/09/06 00:32:47;;;;;;;6.65;4.65;;;22.80;67.30;;;;;;4947776;29;20031;-51
2023/09/06 00:35:16;;;;;;;8.15;4.55;;;22.80;66.50;;;;;;4951328;28;20122;-48
2023/09/06 00:37:45;;;;;;;8.93;5.00;;;22.80;66.50;;;;;;4952126;28;20495;-51
2023/09/06 00:40:18;;;;;;;10.67;5.50;;;22.80;66.40;;;;;;4948300;29;20035;-47
2023/09/06 00:42:53;;;;;;;10.57;5.38;;;22.80;66.80;;;;;;4947215;29;20411;-51
2023/09/06 00:45:22;;;;;;;10.27;5.00;;;22.80;66.30;;;;;;4949833;29;20100;-52
2023/09/06 00:47:52;;;;;;;;;;;22.70;66.20;;;;;;4935243;29;20035;-55
2023/09/06 00:50:19;;;;;;;8.77;5.32;;;22.80;66.10;;;;;;4948322;28;20045;-52
2023/09/06 00:52:48;;;;;;;10.05;5.35;;;22.70;66.00;;;;;;4945330;29;20059;-55
2023/09/06 00:55:14;;;;;;;12.10;5.47;;;22.70;66.00;;;;;;4951137;28;20078;-55
2023/09/06 00:57:41;;;;;;;9.77;5.25;;;22.70;66.00;;;;;;4950571;29;20028;-52
2023/09/06 01:00:13;;;;;;;11.68;5.00;;;22.70;66.00;;;;;;4950745;29;20111;-54
2023/09/06 01:02:39;;;;;;;10.77;5.18;;;22.70;66.00;;;;;;4945112;29;20102;-53
2023/09/06 01:05:05;;;;;;;13.73;4.93;;;22.70;65.90;;;;;;4950128;29;20110;-48
2023/09/06 01:07:36;;;;;;;8.93;5.22;;;22.70;65.90;;;;;;4950001;29;20338;-52
2023/09/06 01:10:03;;;;;;;8.45;5.05;;;22.70;66.00;;;;;;4951341;29;20078;-52
2023/09/06 01:12:30;;;;;;;7.95;4.60;;;22.70;65.80;;;;;;4943088;29;20023;-55
2023/09/06 01:14:56;;;;;;;8.35;4.88;;;22.70;65.80;;;;;;4949978;29;20043;-53
2023/09/06 01:17:26;;;;;;;9.10;4.88;;;22.70;65.80;;;;;;4950969;28;20147;-49
2023/09/06 01:19:58;;;;;;;7.75;4.43;;;22.70;65.70;;;;;;4951228;28;20035;-47
2023/09/06 01:22:44;;;;;;;9.65;5.05;;;22.70;65.70;;;;;;4941898;29;20031;-47
2023/09/06 01:25:11;;;;;;;8.27;5.15;;;22.70;65.80;;;;;;4951462;29;20039;-50
2023/09/06 01:27:38;;;;;;;9.38;5.05;;;22.70;65.80;;;;;;4950906;29;20493;-51
2023/09/06 01:30:05;;;;;;;9.65;4.80;;;22.70;65.70;;;;;;4951096;28;20027;-46
2023/09/06 01:32:31;;;;;;;11.80;5.03;;;22.70;65.60;;;;;;4943054;28;20035;-49
2023/09/06 01:34:57;;;;;;;10.02;4.78;;;22.70;65.60;;;;;;4951198;28;20029;-51
2023/09/06 01:37:23;;;;;;;13.25;5.10;;;22.70;65.60;;;;;;4949420;29;20086;-51
2023/09/06 01:39:49;;;;;;;8.77;4.97;;;22.70;65.60;;;;;;4950975;28;20028;-49
2023/09/06 01:42:15;;;;;;;8.82;4.80;;;22.70;65.60;;;;;;4941844;29;20027;-50
2023/09/06 01:44:40;;;;;;;9.73;4.90;;;22.70;65.60;;;;;;4951083;29;20050;-48
2023/09/06 01:47:06;;;;;;;9.13;5.10;;;22.60;65.50;;;;;;4950903;28;20475;-48
2023/09/06 01:49:32;;;;;;;11.68;4.97;;;22.60;66.10;;;;;;4950448;29;20066;-46
2023/09/06 01:52:01;;;;;;;8.95;4.47;;;22.70;65.40;;;;;;4941565;29;20027;-49
2023/09/06 01:54:27;;;;;;;8.40;4.50;;;22.60;65.50;;;;;;4951070;28;20031;-47
2023/09/06 01:56:52;;;;;;;7.60;4.45;;;22.60;65.40;;;;;;4950966;29;20279;-50
2023/09/06 01:59:18;;;;;;;8.80;4.68;;;22.60;65.40;;;;;;4950912;29;20072;-50
2023/09/06 02:01:44;;;;;;;9.23;4.68;;;22.60;65.40;;;;;;4943625;28;20411;-47
2023/09/06 02:04:10;;;;;;;9.05;5.07;;;22.60;65.40;;;;;;4953430;28;20495;-46
2023/09/06 02:06:37;;;;;;;7.63;4.20;;;22.60;65.40;;;;;;4953285;29;20035;-47
2023/09/06 02:09:04;;;;;;;8.50;4.47;;;22.60;65.40;;;;;;4954509;29;20031;-49
2023/09/06 02:11:31;;;;;;;8.50;4.50;;;22.60;65.30;;;;;;4946760;29;20107;-50
2023/09/06 02:13:57;;;;;;;8.40;4.28;;;22.60;65.60;;;;;;4954205;29;20035;-46
2023/09/06 02:16:23;;;;;;;9.13;4.47;;;22.60;65.60;;;;;;4954600;29;20038;-48
2023/09/06 02:18:50;;;;;;;9.02;4.88;;;22.60;65.50;;;;;;4953100;29;20566;-49
2023/09/06 02:21:16;;;;;;;11.55;4.88;;;22.50;65.80;;;;;;4948940;29;20082;-47
2023/09/06 02:23:41;;;;;;;6.60;4.20;;;22.50;65.80;;;;;;4951495;29;20031;-51
2023/09/06 02:26:07;;;;;;;12.57;5.30;;;22.50;65.90;;;;;;4954286;29;20039;-48
2023/09/06 02:28:34;;;;;;;8.45;4.45;;;22.50;65.90;;;;;;4952974;29;20019;-46
2023/09/06 02:31:00;;;;;;;7.93;4.57;;;22.50;65.90;;;;;;4951460;29;20467;-50
2023/09/06 02:33:28;;;;;;;10.23;4.63;;;22.40;65.80;;;;;;4949033;29;20058;-46
2023/09/06 02:35:54;;;;;;;7.78;4.85;;;22.40;65.80;;;;;;4953729;29;20031;-50
2023/09/06 02:38:19;;;;;;;7.90;4.55;;;22.40;65.70;;;;;;4954063;28;20023;-49
2023/09/06 02:40:45;;;;;;;8.18;4.55;;;22.40;65.70;;;;;;4952545;29;20030;-51
2023/09/06 02:43:13;;;;;;;7.13;4.28;;;22.40;65.70;;;;;;4946565;29;20111;-49
2023/09/06 02:45:39;;;;;;;11.35;4.55;;;22.40;65.70;;;;;;4952751;29;20082;-47
2023/09/06 02:48:07;;;;;;;9.75;4.88;;;22.40;65.70;;;;;;4953311;28;20570;-47
2023/09/06 02:50:36;;;;;;;8.38;4.20;;;22.40;65.60;;;;;;4936685;29;20502;-49
2023/09/06 02:53:03;;;;;;;11.80;4.73;;;22.40;65.60;;;;;;4944595;28;20522;-47
2023/09/06 02:55:35;;;;;;;8.65;4.45;;;22.30;65.50;;;;;;4952741;29;20042;-47
2023/09/06 02:58:01;;;;;;;11.65;4.68;;;22.40;65.50;;;;;;4952293;29;20380;-46
2023/09/06 03:00:29;;;;;;;10.02;4.22;;;22.30;65.30;;;;;;4952755;29;20078;-52
2023/09/06 03:03:05;;;;;;;9.75;4.53;;;22.30;65.30;;;;;;4944504;29;20522;-55
2023/09/06 03:05:32;;;;;;;9.02;4.07;;;22.30;65.30;;;;;;4951604;29;20035;-55
2023/09/06 03:07:59;;;;;;;9.95;4.22;;;22.30;65.20;;;;;;4951390;29;20027;-56
2023/09/06 03:10:32;;;;;;;9.25;5.68;;;22.30;65.20;;;;;;4952171;29;20034;-56
2023/09/06 03:12:59;;;;;;;;;;;22.30;65.20;;;;;;4943979;28;20035;-52
2023/09/06 03:15:28;;;;;;;8.65;4.97;;;22.30;65.10;;;;;;4952141;29;19914;-55
2023/09/06 03:17:59;;;;;;;8.82;5.18;;;22.30;65.00;;;;;;4951983;29;20075;-55
2023/09/06 03:20:33;;;;;;;10.35;5.40;;;22.30;64.90;;;;;;4952288;29;20035;-51
2023/09/06 03:23:02;;;;;;;9.98;4.30;;;22.30;64.90;;;;;;4944247;29;20062;-54
2023/09/06 03:25:32;;;;;;;8.52;5.03;;;22.30;64.90;;;;;;4952084;28;20027;-49
2023/09/06 03:28:01;;;;;;;7.38;4.68;;;22.30;64.80;;;;;;4951948;29;20586;-54
2023/09/06 03:30:30;;;;;;;8.40;5.20;;;22.20;64.80;;;;;;4952095;29;20403;-51
2023/09/06 03:32:58;;;;;;;10.77;5.10;;;22.30;64.90;;;;;;4944012;29;20089;-53
2023/09/06 03:35:26;;;;;;;9.23;4.40;;;22.20;64.70;;;;;;4952075;29;20031;-46
2023/09/06 03:37:53;;;;;;;8.07;4.20;;;22.20;64.70;;;;;;4951934;29;20118;-47
2023/09/06 03:40:25;;;;;;;8.13;4.80;;;22.20;64.70;;;;;;4953353;28;20456;-50
2023/09/06 03:42:53;;;;;;;10.40;4.70;;;22.20;64.80;;;;;;4945458;28;20035;-54
2023/09/06 03:45:21;;;;;;;8.85;4.75;;;22.30;64.70;;;;;;4954114;28;20407;-54
2023/09/06 03:47:48;;;;;;;8.30;4.32;;;22.30;64.70;;;;;;4951197;29;20031;-53
2023/09/06 03:50:15;;;;;;;7.55;4.30;;;22.20;64.60;;;;;;4952509;28;20019;-53
2023/09/06 03:52:43;;;;;;;8.27;5.00;;;22.20;64.50;;;;;;4944986;28;20031;-48
2023/09/06 03:55:10;;;;;;;8.68;4.13;;;22.30;64.50;;;;;;4951561;29;20109;-55
2023/09/06 03:57:37;;;;;;;8.27;4.43;;;22.30;64.40;;;;;;4951544;29;20162;-53
2023/09/06 04:03:03;;;;;;;7.22;4.05;;;22.30;64.30;;;;;;4943549;29;19964;-49
2023/09/06 04:05:29;;;;;;;7.65;4.72;;;22.30;64.20;;;;;;4951391;29;20031;-46
2023/09/06 04:07:58;;;;;;;6.22;4.03;;;22.30;64.10;;;;;;4951075;29;20403;-47
2023/09/06 04:10:27;;;;;;;10.85;4.47;;;22.30;64.40;;;;;;4950911;29;20114;-49
2023/09/06 04:12:55;;;;;;;8.60;4.55;;;22.30;64.20;;;;;;4944465;28;20081;-48
2023/09/06 04:15:22;;;;;;;11.00;4.43;;;22.30;64.20;;;;;;4952442;28;20588;-49
2023/09/06 04:17:57;;;;;;;9.73;4.57;;;22.30;64.40;;;;;;4951004;29;20118;-53
2023/09/06 04:20:27;;;;;;;7.53;4.35;;;22.30;64.40;;;;;;4935114;29;20094;-48
2023/09/06 04:22:57;;;;;;;7.13;4.68;;;22.20;64.40;;;;;;4943214;29;20039;-49
2023/09/06 04:25:26;;;;;;;7.30;4.65;;;22.30;65.00;;;;;;4950260;28;20031;-50
2023/09/06 04:27:55;;;;;;;8.55;4.28;;;22.20;64.40;;;;;;4951006;29;20039;-48
2023/09/06 04:30:30;;;;;;;7.30;4.35;;;22.20;64.50;;;;;;4950801;29;20407;-46
2023/09/06 04:32:58;;;;;;;11.55;5.13;;;22.20;64.60;;;;;;4942990;29;20499;-49
2023/09/06 04:35:38;;;;;;;12.25;6.68;;;22.20;64.60;;;;;;4950968;29;20027;-46
2023/09/06 04:38:05;;;;;;;12.27;6.15;;;22.20;64.70;;;;;;4938049;29;20039;-50
2023/09/06 04:40:31;;;;;;;14.93;6.57;;;22.20;64.70;;;;;;4947518;29;20054;-47
2023/09/06 04:42:57;;;;;;;13.15;6.43;;;22.20;64.70;;;;;;4942671;29;20113;-49
2023/09/06 04:45:23;;;;;;;13.77;7.72;;;22.20;64.70;;;;;;4950716;29;20051;-46
2023/09/06 04:47:49;;;;;;;15.80;8.80;;;22.10;64.70;;;;;;4925023;29;20028;-49
2023/09/06 04:50:15;;;;;;;16.63;9.70;;;22.10;64.70;;;;;;4946327;29;20038;-47
2023/09/06 04:52:46;;;;;;;15.30;8.35;;;22.10;64.70;;;;;;4943674;29;20492;-48
2023/09/06 04:55:14;;;;;;;14.55;7.57;;;22.10;64.70;;;;;;4950599;29;20027;-47
2023/09/06 04:57:41;;;;;;;9.20;5.55;;;22.10;64.70;;;;;;4942277;29;20063;-50
2023/09/06 05:00:35;;;;;;;15.02;6.47;;;22.10;64.70;;;;;;4944168;29;20051;-47
2023/09/06 05:02:57;;;;;;;;;;;22.10;64.80;;;;;;4943696;29;20106;-47
2023/09/06 05:05:23;;;;;;;12.20;5.60;;;22.10;64.80;;;;;;4950422;29;19969;-47
2023/09/06 05:07:50;;;;;;;8.93;5.38;;;22.10;64.70;;;;;;4941228;29;20024;-47
2023/09/06 05:10:18;;;;;;;9.63;5.55;;;22.10;64.70;;;;;;4942601;29;20108;-48
2023/09/06 05:12:45;;;;;;;11.65;5.90;;;22.10;64.70;;;;;;4938567;29;20041;-49
2023/09/06 05:15:12;;;;;;;11.65;6.32;;;22.10;64.70;;;;;;4935722;29;20042;-46
2023/09/06 05:17:41;;;;;;;15.18;7.45;;;22.10;64.70;;;;;;4930372;29;20503;-46
2023/09/06 05:20:30;;;;;;;11.77;6.63;;;22.00;64.60;;;;;;4933145;29;20404;-53
2023/09/06 05:22:59;;;;;;;19.23;7.68;;;22.10;64.60;;;;;;4936959;29;20031;-56
2023/09/06 05:25:26;;;;;;;12.00;6.05;;;22.00;64.60;;;;;;4933844;29;20513;-53
2023/09/06 05:27:56;;;;;;;11.23;5.95;;;22.00;65.10;;;;;;4932362;29;20035;-54
2023/09/06 05:30:23;;;;;;;11.65;5.45;;;22.00;64.50;;;;;;4933216;29;20077;-52
2023/09/06 05:32:49;;;;;;;9.35;5.32;;;22.00;64.50;;;;;;4934787;29;20047;-55
2023/09/06 05:35:16;;;;;;;10.15;5.13;;;22.00;64.50;;;;;;4930758;29;20035;-52
2023/09/06 05:37:42;;;;;;;9.88;5.55;;;22.10;64.40;;;;;;4930814;29;20036;-55
2023/09/06 05:40:09;;;;;;;11.02;5.20;;;22.10;64.40;;;;;;4931922;29;20036;-53
2023/09/06 05:42:35;;;;;;;10.85;5.18;;;22.00;64.30;;;;;;4934553;29;20042;-49
2023/09/06 05:45:01;;;;;;;12.90;6.53;;;22.10;64.30;;;;;;4934330;29;20032;-49
2023/09/06 05:47:27;;;;;;;10.73;5.50;;;22.00;64.30;;;;;;4931099;29;20087;-56
2023/09/06 05:49:55;;;;;;;12.93;5.95;;;22.00;64.20;;;;;;4932821;29;20055;-55
2023/09/06 05:52:22;;;;;;;11.75;5.47;;;22.00;64.30;;;;;;4932513;29;20042;-52
2023/09/06 05:54:48;;;;;;;15.25;6.93;;;22.00;64.20;;;;;;4931741;29;20042;-52
2023/09/06 05:57:14;;;;;;;12.88;7.38;;;22.00;64.20;;;;;;4932270;29;20039;-56
2023/09/06 05:59:41;;;;;;;12.25;7.30;;;22.10;64.20;;;;;;4935837;29;20058;-52
2023/09/06 06:02:08;;;;;;;13.23;7.13;;;22.10;64.20;;;;;;4948857;29;20094;-49
2023/09/06 06:04:34;;;;;;;13.38;6.82;;;22.10;64.20;;;;;;4942559;29;20031;-51
2023/09/06 06:07:00;;;;;;;11.30;7.35;;;22.00;64.10;;;;;;4950768;29;20094;-49
2023/09/06 06:09:27;;;;;;;14.98;8.05;;;22.10;64.10;;;;;;4935090;28;20030;-53
2023/09/06 06:11:53;;;;;;;17.98;8.25;;;22.00;64.10;;;;;;4950854;28;20062;-52
2023/09/06 06:14:19;;;;;;;11.07;7.45;;;22.10;64.10;;;;;;4943011;29;20066;-49
2023/09/06 06:16:46;;;;;;;13.57;7.35;;;22.10;64.10;;;;;;4950630;29;20046;-46
2023/09/06 06:19:12;;;;;;;13.65;7.10;;;22.10;64.00;;;;;;4934653;29;20583;-49
2023/09/06 06:21:39;;;;;;;12.13;6.30;;;22.10;64.50;;;;;;4950647;28;20113;-53
2023/09/06 06:24:09;;;;;;;9.68;5.95;;;22.10;64.50;;;;;;4942994;29;20032;-47
2023/09/06 06:26:34;;;;;;;12.32;6.75;;;22.10;63.90;;;;;;4950723;29;20032;-46
2023/09/06 06:29:01;;;;;;;15.13;6.13;;;22.10;63.90;;;;;;4936213;28;20566;-55
2023/09/06 06:31:28;;;;;;;14.38;6.35;;;22.20;63.90;;;;;;4939582;29;20138;-52
2023/09/06 06:33:54;;;;;;;12.15;6.00;;;22.20;63.90;;;;;;4935180;29;20028;-49
2023/09/06 06:36:21;;;;;;;11.35;6.32;;;22.20;63.90;;;;;;4938509;28;20115;-50
2023/09/06 06:38:47;;;;;;;11.07;5.93;;;22.20;64.00;;;;;;4930549;29;20078;-49
2023/09/06 06:41:22;;;;;;;12.23;6.82;;;22.20;63.90;;;;;;4937520;29;20580;-49
2023/09/06 06:43:49;;;;;;;14.75;8.30;;;22.20;64.00;;;;;;4929026;29;20034;-49
2023/09/06 06:46:32;;;;;;;12.05;7.22;;;22.20;64.00;;;;;;4939081;29;20035;-47
2023/09/06 06:48:59;;;;;;;14.52;7.72;;;22.20;63.90;;;;;;4933470;29;20042;-49
2023/09/06 06:51:35;;;;;;;10.57;6.70;;;22.20;64.00;;;;;;4940291;29;20059;-55
2023/09/06 06:54:02;;;;;;;13.18;6.40;;;22.20;64.00;;;;;;4943507;28;20038;-46
2023/09/06 06:56:28;;;;;;;17.23;6.72;;;22.20;63.90;;;;;;4940673;28;20525;-49
2023/09/06 06:58:53;;;;;;;12.93;7.45;;;22.20;64.00;;;;;;4934583;29;20035;-47
2023/09/06 07:01:20;;;;;;;12.88;7.07;;;22.20;64.10;;;;;;4939913;29;20381;-46
2023/09/06 07:03:47;;;;;;;12.80;6.72;;;22.20;64.10;;;;;;4942473;29;20042;-49
2023/09/06 07:06:13;;;;;;;11.15;6.95;;;22.20;64.10;;;;;;4941816;29;20476;-49
2023/09/06 07:08:39;;;;;;;14.45;7.05;;;22.30;64.00;;;;;;4926879;29;20019;-46
2023/09/06 07:11:06;;;;;;;27.10;8.10;;;22.20;64.60;;;;;;4937863;29;20040;-53
2023/09/06 07:13:33;;;;;;;14.07;7.07;;;22.30;64.00;;;;;;4937492;29;20559;-49
2023/09/06 07:15:59;;;;;;;10.48;6.78;;;22.30;63.90;;;;;;4942775;28;20114;-54
2023/09/06 07:18:25;;;;;;;14.70;7.00;;;22.30;64.10;;;;;;4933861;29;20111;-50
2023/09/06 07:20:50;;;;;;;11.30;6.55;;;22.40;64.30;;;;;;4938975;29;20083;-51
2023/09/06 07:23:16;;;;;;;14.15;6.78;;;22.40;64.50;;;;;;4938149;29;20035;-46
2023/09/06 07:25:46;;;;;;;10.80;6.32;;;22.40;64.40;;;;;;4939180;29;20032;-55
2023/09/06 07:28:15;;;;;;;12.60;7.20;;;22.40;64.90;;;;;;4936456;28;20028;-51
2023/09/06 07:30:42;;;;;;;14.27;6.63;;;22.50;64.90;;;;;;4931200;29;20440;-50
2023/09/06 07:33:08;;;;;;;13.20;6.35;;;22.50;64.80;;;;;;4935551;29;20103;-52
2023/09/06 07:35:34;;;;;;;13.93;6.20;;;22.60;64.70;;;;;;4937494;29;20031;-55
2023/09/06 07:38:00;;;;;;;12.88;6.30;;;22.60;64.60;;;;;;4937188;29;20555;-54
2023/09/06 07:40:26;;;;;;;12.48;6.80;;;22.60;64.40;;;;;;4931004;29;20515;-55
2023/09/06 07:42:53;;;;;;;13.57;6.22;;;22.60;64.30;;;;;;4931077;29;20027;-55
2023/09/06 07:45:18;;;;;;;16.65;6.45;;;22.60;64.20;;;;;;4928976;29;20500;-55
2023/09/06 07:47:44;;;;;;;12.25;6.47;;;22.70;64.20;;;;;;4931758;29;20054;-50
2023/09/06 07:50:10;;;;;;;13.10;5.53;;;22.70;64.20;;;;;;4931246;29;20566;-55
2023/09/06 07:52:37;;;;;;;15.27;6.75;;;22.70;64.20;;;;;;4931671;29;20040;-55
2023/09/06 07:55:07;;;;;;;13.10;6.50;;;22.70;64.10;;;;;;4930816;29;20035;-52
2023/09/06 07:57:33;;;;;;;11.00;6.40;;;22.80;64.20;;;;;;4932034;29;20358;-50
2023/09/06 07:59:59;;;;;;;14.55;6.10;;;22.80;64.00;;;;;;4931613;29;20038;-54
2023/09/06 08:02:25;;;;;;;12.48;6.00;;;22.80;64.30;;;;;;4932070;29;20430;-53
2023/09/06 08:04:51;;;;;;;10.75;5.72;;;22.80;64.30;;;;;;4931653;29;20067;-52
2023/09/06 08:07:17;;;;;;;14.15;6.32;;;22.80;64.40;;;;;;4931158;29;20062;-49
2023/09/06 08:09:43;;;;;;;11.32;6.00;;;22.90;65.00;;;;;;4931291;29;20028;-54
2023/09/06 08:12:09;;;;;;;12.05;5.97;;;22.90;64.30;;;;;;4932319;29;20024;-50
2023/09/06 08:14:35;;;;;;;11.70;5.13;;;22.90;64.20;;;;;;4930837;29;20102;-53
2023/09/06 08:17:02;;;;;;;11.20;6.18;;;22.90;64.20;;;;;;4932722;29;20127;-52
2023/09/06 08:19:27;;;;;;;11.50;6.10;;;23.00;64.20;;;;;;4931420;29;20395;-49
2023/09/06 08:21:53;;;;;;;9.82;6.15;;;23.00;64.20;;;;;;4932917;29;20031;-51
2023/09/06 08:24:19;;;;;;;13.55;6.57;;;23.00;64.20;;;;;;4932378;29;20090;-51
2023/09/06 08:26:48;;;;;;;14.30;7.55;;;23.00;64.30;;;;;;4930571;29;20071;-48
2023/09/06 08:29:14;;;;;;;14.77;7.65;;;23.10;64.70;;;;;;4931644;29;20035;-51
2023/09/06 08:31:39;;;;;;;20.23;7.68;;;23.10;64.40;;;;;;4930425;29;20028;-52
2023/09/06 08:34:05;;;;;;;15.30;7.38;;;23.20;64.40;;;;;;4925075;29;20060;-51
2023/09/06 08:36:31;;;;;;;13.65;7.57;;;23.20;64.20;;;;;;4925141;29;20042;-50
2023/09/06 08:38:58;;;;;;;14.85;7.18;;;23.20;64.00;;;;;;4926757;29;20028;-49
2023/09/06 08:41:26;;;;;;;14.80;6.90;;;23.30;63.90;;;;;;4924740;29;20031;-51
2023/09/06 08:43:53;;;;;;;15.07;7.38;;;23.20;63.90;;;;;;4922354;29;20032;-46
2023/09/06 08:46:33;;;;;;;13.35;6.25;;;23.20;63.30;;;;;;4923808;29;20020;-51
2023/09/06 08:49:03;;;;;;;15.18;7.30;;;23.30;63.60;;;;;;4925475;29;20166;-49
2023/09/06 08:51:35;;;;;;;;;;;23.20;63.50;;;;;;4925250;29;20028;-47
2023/09/06 08:54:07;;;;;;;12.77;6.38;;;23.20;63.30;;;;;;4922753;29;20323;-50
2023/09/06 08:56:33;;;;;;;15.95;6.47;;;23.20;63.10;;;;;;4925814;29;20031;-46
2023/09/06 08:59:00;;;;;;;13.45;6.38;;;23.30;63.10;;;;;;4926301;29;20051;-49
2023/09/06 09:01:27;;;;;;;11.75;6.30;;;23.30;62.90;;;;;;4926267;29;20031;-48
2023/09/06 09:03:53;;;;;;;16.23;6.47;;;23.30;62.60;;;;;;4923145;29;20111;-50
2023/09/06 09:06:20;;;;;;;16.88;5.85;;;23.30;62.70;;;;;;4924733;29;20036;-51
2023/09/06 09:08:46;;;;;;;14.60;6.22;;;23.30;62.70;;;;;;4926756;29;20039;-49
2023/09/06 09:11:14;;;;;;;12.23;6.28;;;23.30;62.80;;;;;;4926147;29;20031;-46
2023/09/06 09:13:41;;;;;;;12.32;5.80;;;23.40;62.80;;;;;;4925227;29;20028;-47
2023/09/06 09:16:12;;;;;;;15.10;6.35;;;23.40;62.60;;;;;;4923747;29;20110;-50
2023/09/06 09:18:39;;;;;;;11.70;6.65;;;23.40;62.30;;;;;;4928897;29;20039;-46
2023/09/06 09:21:09;;;;;;;12.35;5.78;;;23.40;62.10;;;;;;4931226;29;20496;-46
2023/09/06 09:23:46;;;;;;;;;;;23.40;61.90;;;;;;4926299;29;20455;-46
2023/09/06 09:26:12;;;;;;;9.95;5.50;;;23.40;61.80;;;;;;4924530;29;19915;-46
2023/09/06 09:28:41;;;;;;;16.88;6.20;;;23.50;61.70;;;;;;4927613;29;20024;-47
2023/09/06 09:31:13;;;;;;;11.47;6.00;;;23.40;61.60;;;;;;4927518;29;20039;-46
2023/09/06 09:33:39;;;;;;;11.88;5.80;;;23.40;61.60;;;;;;4924675;29;20275;-46
2023/09/06 09:36:06;;;;;;;12.32;6.22;;;23.40;61.50;;;;;;4924340;29;20535;-46
2023/09/06 09:38:31;;;;;;;12.45;6.30;;;23.50;61.40;;;;;;4926814;29;20039;-50
2023/09/06 09:41:08;;;;;;;13.80;6.00;;;23.50;61.30;;;;;;4930514;29;20023;-53
2023/09/06 09:43:35;;;;;;;14.45;6.30;;;23.50;61.10;;;;;;4927818;29;20032;-55
2023/09/06 09:46:01;;;;;;;18.48;6.53;;;23.50;61.10;;;;;;4925604;29;20468;-52
2023/09/06 09:48:31;;;;;;;14.20;7.40;;;23.50;61.00;;;;;;4927127;29;20250;-49
2023/09/06 09:50:58;;;;;;;15.15;6.63;;;23.50;60.90;;;;;;4927201;29;20032;-46
2023/09/06 09:53:24;;;;;;;15.95;6.85;;;23.50;60.70;;;;;;4926594;29;20036;-49
2023/09/06 09:55:53;;;;;;;19.08;6.20;;;23.50;60.90;;;;;;4927836;29;20032;-50
2023/09/06 09:58:20;;;;;;;10.20;5.72;;;23.50;60.80;;;;;;4926187;29;20043;-46
2023/09/06 10:00:49;;;;;;;12.82;6.20;;;23.50;60.50;;;;;;4928644;29;20067;-46
2023/09/06 10:03:16;;;;;;;9.70;5.72;;;23.50;60.60;;;;;;4928627;29;20031;-49
2023/09/06 10:05:43;;;;;;;14.40;6.20;;;23.50;60.50;;;;;;4928628;29;20404;-46
2023/09/06 10:08:10;;;;;;;12.23;5.93;;;23.50;60.50;;;;;;4926269;29;20488;-45
2023/09/06 10:10:40;;;;;;;16.60;6.13;;;23.50;60.40;;;;;;4928935;29;20058;-46
2023/09/06 10:13:09;;;;;;;13.93;6.20;;;23.50;60.40;;;;;;4929190;29;20126;-46
2023/09/06 10:15:36;;;;;;;10.03;5.80;;;23.60;60.20;;;;;;4929228;29;20095;-46
2023/09/06 10:18:03;;;;;;;12.40;5.78;;;23.60;60.00;;;;;;4928104;29;20276;-48
2023/09/06 10:20:32;;;;;;;9.98;5.80;;;23.60;59.20;;;;;;4928508;29;20036;-46
2023/09/06 10:22:59;;;;;;;11.68;5.30;;;23.60;59.10;;;;;;4930634;29;20055;-47
2023/09/06 10:25:26;;;;;;;15.60;6.10;;;23.50;58.70;;;;;;4933126;29;20039;-46
2023/09/06 10:27:53;;;;;;;11.25;6.10;;;23.60;58.60;;;;;;4933687;29;20032;-46
2023/09/06 10:30:34;;;;;;;14.00;5.70;;;23.50;58.50;;;;;;4931813;29;20028;-47
2023/09/06 10:33:03;;;;;;;11.30;6.05;;;23.60;58.60;;;;;;4933660;29;21662;-48
2023/09/06 10:35:32;;;;;;;12.15;5.47;;;23.60;58.60;;;;;;4933630;29;20028;-46
2023/09/06 10:38:10;;;;;;;12.73;5.90;;;23.60;58.60;;;;;;4933662;29;20036;-46
2023/09/06 10:40:51;;;;;;;14.63;5.68;;;23.60;58.80;;;;;;4933946;29;20337;-46
2023/09/06 10:43:42;;;;;;;12.63;5.50;;;23.60;59.10;;;;;;4933804;29;20042;-50
2023/09/06 10:46:07;;;;;;;13.85;5.60;;;23.50;59.10;;;;;;4933659;29;20031;-54
2023/09/06 10:48:34;;;;;;;12.38;6.20;;;23.50;58.80;;;;;;4933300;29;20353;-50
2023/09/06 10:51:19;;;;;;;12.05;7.38;;;23.60;58.50;;;;;;4934118;29;20036;-52
2023/09/06 10:53:47;;;;;;;13.25;8.13;;;23.60;58.50;;;;;;4934326;29;20032;-52
2023/09/06 10:56:13;;;;;;;16.70;7.27;;;23.60;58.30;;;;;;4932953;29;20036;-49
2023/09/06 10:58:39;;;;;;;13.77;7.05;;;23.60;59.80;;;;;;4933432;29;20351;-53
2023/09/06 11:01:18;;;;;;;14.88;7.13;;;23.70;59.10;;;;;;4927305;29;20107;-55
2023/09/06 11:03:50;;;;;;;13.85;7.00;;;23.80;59.40;;;;;;4919991;29;20123;-51
2023/09/06 11:06:16;;;;;;;14.48;7.50;;;23.80;61.00;;;;;;4926330;29;20032;-53
2023/09/06 11:08:42;;;;;;;14.98;6.75;;;23.90;60.60;;;;;;4931213;29;20028;-52
2023/09/06 11:11:09;;;;;;;13.15;6.85;;;23.90;59.90;;;;;;4924030;29;20039;-54
2023/09/06 11:13:37;;;;;;;16.35;6.20;;;23.90;59.00;;;;;;4926635;29;20042;-48
2023/09/06 11:16:05;;;;;;;17.55;6.68;;;23.90;58.70;;;;;;4927536;29;20027;-46
2023/09/06 11:18:41;;;;;;;19.70;6.38;;;23.90;59.30;;;;;;4925093;29;20115;-48
2023/09/06 11:21:07;;;;;;;14.05;5.72;;;23.90;58.60;;;;;;4926869;29;20325;-46
2023/09/06 11:23:43;;;;;;;13.75;5.35;;;23.90;57.40;;;;;;4928717;29;20455;-52
2023/09/06 11:26:09;;;;;;;13.35;5.47;;;23.90;56.90;;;;;;4927149;29;20028;-51
2023/09/06 11:28:38;;;;;;;12.63;5.20;;;23.90;57.20;;;;;;4925386;29;20047;-54
2023/09/06 11:31:05;;;;;;;12.75;5.07;;;23.90;57.00;;;;;;4924176;29;20024;-47
2023/09/06 11:33:31;;;;;;;11.20;5.57;;;23.90;56.90;;;;;;4926232;29;20500;-46
2023/09/06 11:35:58;;;;;;;9.65;5.07;;;23.90;56.70;;;;;;4927763;29;20036;-49
2023/09/06 11:38:33;;;;;;;13.93;5.65;;;23.90;56.80;;;;;;4927560;29;20428;-53
2023/09/06 11:41:03;;;;;;;9.07;5.35;;;23.90;58.30;;;;;;4924667;29;20381;-51
2023/09/06 11:43:30;;;;;;;9.57;5.18;;;23.90;56.90;;;;;;4927137;29;20405;-51
2023/09/06 11:46:03;;;;;;;11.32;5.35;;;23.80;56.70;;;;;;4927971;29;20035;-50
2023/09/06 11:48:31;;;;;;;17.15;5.60;;;23.90;56.80;;;;;;4930164;29;20118;-52
2023/09/06 11:51:02;;;;;;;15.20;6.30;;;23.90;56.70;;;;;;4925133;29;20026;-51
2023/09/06 11:53:28;;;;;;;13.00;6.82;;;23.90;55.80;;;;;;4925238;29;20028;-51
2023/09/06 11:55:59;;;;;;;13.68;7.20;;;23.90;55.70;;;;;;4927203;29;20067;-46
2023/09/06 11:58:27;;;;;;;12.32;6.20;;;23.80;55.10;;;;;;4927211;29;20095;-49
2023/09/06 12:00:55;;;;;;;11.88;6.47;;;23.80;55.20;;;;;;4926128;29;20032;-48
2023/09/06 12:03:33;;;;;;;10.00;5.55;;;23.70;56.10;;;;;;4926408;29;20028;-44
2023/09/06 12:06:00;;;;;;;11.25;6.13;;;23.70;55.20;;;;;;4928835;29;20036;-49
2023/09/06 12:08:29;;;;;;;17.95;5.43;;;23.80;55.90;;;;;;4928388;29;20028;-49
2023/09/06 12:11:05;;;;;;;8.83;5.30;;;23.70;55.00;;;;;;4926940;29;20387;-49
2023/09/06 12:13:34;;;;;;;12.85;5.70;;;23.70;55.10;;;;;;4927800;29;20027;-54
2023/09/06 12:16:01;;;;;;;12.47;5.03;;;23.70;54.90;;;;;;4929093;29;20106;-50
2023/09/06 12:18:28;;;;;;;9.00;4.45;;;23.70;54.90;;;;;;4927377;29;20518;-45
2023/09/06 12:20:57;;;;;;;9.38;5.00;;;23.70;55.00;;;;;;4927889;29;20063;-46
2023/09/06 12:23:26;;;;;;;8.88;4.65;;;23.70;56.10;;;;;;4927311;29;20492;-44
2023/09/06 12:25:52;;;;;;;8.07;4.80;;;23.70;55.20;;;;;;4929360;29;20032;-44
2023/09/06 12:28:18;;;;;;;9.13;4.53;;;23.70;54.20;;;;;;4928694;29;20027;-50
2023/09/06 12:30:45;;;;;;;12.52;5.05;;;23.70;53.90;;;;;;4929166;29;20403;-49
2023/09/06 12:33:13;;;;;;;11.05;4.60;;;23.70;55.10;;;;;;4926237;29;20543;-45
2023/09/06 12:35:40;;;;;;;10.15;4.82;;;23.60;55.00;;;;;;4929601;29;20103;-48
2023/09/06 12:38:07;;;;;;;12.43;5.43;;;23.60;55.10;;;;;;4929523;29;20038;-50
2023/09/06 12:40:36;;;;;;;12.88;4.78;;;23.60;54.20;;;;;;4930011;29;20082;-47
2023/09/06 12:43:04;;;;;;;10.88;4.70;;;23.70;55.00;;;;;;4928491;29;20029;-46
2023/09/06 12:45:31;;;;;;;8.10;4.40;;;23.70;56.60;;;;;;4927928;29;20043;-44
2023/09/06 12:47:58;;;;;;;7.85;4.30;;;23.70;54.40;;;;;;4929796;29;20023;-44